Atwood, Illinois
Current Conditions -  °F | °C
As of 8:53 AM on Sunday 21 Dec 2014 (Local Time) from KCMI Reporting Station
Haze Haze  
Wind Chill: 23°   Ceiling: 3400
Heat Index: 32°   Visibility: 5mi
Dew Point: 27°   Wind: 12mph
Humidity: 82%   Direction: 160°SSE
Pressure: 30.23"   Gusts: NA
Location:  39.8°N, 88.46°W
Report Text: KCMI 211453Z 16010KT 5SM HZ OVC034 00/M03 A3023 RMK AO2 SLP246 T00001028 58002
Loading
Personal Weather Stations






























Interactive Weather Map New forecast layout! Learn more

10-Day Weather Forecast

Advertisements
Track Severe Weather on mobile